sensor_id;sensor_type;location;lat;lon;timestamp;temperature;humidity
58153;DHT22;43967;51.634;5.566;2022-10-16T00:03:56;20.70;73.10
58153;DHT22;43967;51.634;5.566;2022-10-16T00:08:58;20.70;73.10
58153;DHT22;43967;51.634;5.566;2022-10-16T00:14:01;20.70;73.00
58153;DHT22;43967;51.634;5.566;2022-10-16T00:19:03;20.70;72.90
58153;DHT22;43967;51.634;5.566;2022-10-16T00:24:06;20.70;72.90
58153;DHT22;43967;51.634;5.566;2022-10-16T00:29:09;20.70;72.90
58153;DHT22;43967;51.634;5.566;2022-10-16T00:34:10;20.70;72.80
58153;DHT22;43967;51.634;5.566;2022-10-16T00:39:11;20.70;72.80
58153;DHT22;43967;51.634;5.566;2022-10-16T00:44:50;20.60;72.70
58153;DHT22;43967;51.634;5.566;2022-10-16T00:49:55;20.70;72.70
58153;DHT22;43967;51.634;5.566;2022-10-16T00:55:00;20.60;72.60
58153;DHT22;43967;51.634;5.566;2022-10-16T01:00:05;20.60;72.60
58153;DHT22;43967;51.634;5.566;2022-10-16T01:05:06;20.60;72.50
58153;DHT22;43967;51.634;5.566;2022-10-16T01:10:27;20.60;72.50
58153;DHT22;43967;51.634;5.566;2022-10-16T01:20:54;20.60;72.40
58153;DHT22;43967;51.634;5.566;2022-10-16T01:26:31;20.60;72.40
58153;DHT22;43967;51.634;5.566;2022-10-16T01:31:39;20.60;72.40
58153;DHT22;43967;51.634;5.566;2022-10-16T01:36:47;20.60;72.30
58153;DHT22;43967;51.634;5.566;2022-10-16T01:41:54;20.60;72.30
58153;DHT22;43967;51.634;5.566;2022-10-16T01:46:56;20.60;72.20
58153;DHT22;43967;51.634;5.566;2022-10-16T01:51:59;20.60;72.20
58153;DHT22;43967;51.634;5.566;2022-10-16T01:57:04;20.60;72.10
58153;DHT22;43967;51.634;5.566;2022-10-16T02:02:13;20.60;72.20
58153;DHT22;43967;51.634;5.566;2022-10-16T02:07:16;20.50;72.00
58153;DHT22;43967;51.634;5.566;2022-10-16T02:12:26;20.60;72.10
58153;DHT22;43967;51.634;5.566;2022-10-16T02:17:28;20.50;71.90
58153;DHT22;43967;51.634;5.566;2022-10-16T02:32:45;20.50;71.90
58153;DHT22;43967;51.634;5.566;2022-10-16T02:37:48;20.50;71.80
58153;DHT22;43967;51.634;5.566;2022-10-16T02:42:53;20.50;71.80
58153;DHT22;43967;51.634;5.566;2022-10-16T02:47:55;20.50;71.80
58153;DHT22;43967;51.634;5.566;2022-10-16T02:52:56;20.50;71.70
58153;DHT22;43967;51.634;5.566;2022-10-16T02:57:57;20.50;71.70
58153;DHT22;43967;51.634;5.566;2022-10-16T03:02:58;20.50;71.60
58153;DHT22;43967;51.634;5.566;2022-10-16T03:08:00;20.50;71.60
58153;DHT22;43967;51.634;5.566;2022-10-16T03:13:01;20.50;71.50
58153;DHT22;43967;51.634;5.566;2022-10-16T03:18:02;20.50;71.50
58153;DHT22;43967;51.634;5.566;2022-10-16T03:23:03;20.50;71.40
58153;DHT22;43967;51.634;5.566;2022-10-16T03:28:04;20.50;71.40
58153;DHT22;43967;51.634;5.566;2022-10-16T03:33:06;20.50;71.40
58153;DHT22;43967;51.634;5.566;2022-10-16T03:38:07;20.50;71.40
58153;DHT22;43967;51.634;5.566;2022-10-16T03:43:08;20.50;71.30
58153;DHT22;43967;51.634;5.566;2022-10-16T03:48:09;20.50;71.30
58153;DHT22;43967;51.634;5.566;2022-10-16T03:53:10;20.40;71.20
58153;DHT22;43967;51.634;5.566;2022-10-16T03:58:11;20.40;71.10
58153;DHT22;43967;51.634;5.566;2022-10-16T04:03:15;20.40;71.10
58153;DHT22;43967;51.634;5.566;2022-10-16T04:08:16;20.40;71.10
58153;DHT22;43967;51.634;5.566;2022-10-16T04:13:17;20.40;71.20
58153;DHT22;43967;51.634;5.566;2022-10-16T04:18:19;20.40;71.10
58153;DHT22;43967;51.634;5.566;2022-10-16T04:23:20;20.40;71.10
58153;DHT22;43967;51.634;5.566;2022-10-16T04:28:21;20.40;71.00
58153;DHT22;43967;51.634;5.566;2022-10-16T04:33:22;20.40;71.10
58153;DHT22;43967;51.634;5.566;2022-10-16T04:38:23;20.40;71.00
58153;DHT22;43967;51.634;5.566;2022-10-16T04:43:24;20.40;71.00
58153;DHT22;43967;51.634;5.566;2022-10-16T04:48:25;20.40;71.00
58153;DHT22;43967;51.634;5.566;2022-10-16T04:53:27;20.40;71.00
58153;DHT22;43967;51.634;5.566;2022-10-16T04:58:28;20.40;71.00
58153;DHT22;43967;51.634;5.566;2022-10-16T05:03:29;20.40;70.90
58153;DHT22;43967;51.634;5.566;2022-10-16T05:08:30;20.40;70.90
58153;DHT22;43967;51.634;5.566;2022-10-16T05:13:31;20.40;70.90
58153;DHT22;43967;51.634;5.566;2022-10-16T05:18:32;20.40;70.90
58153;DHT22;43967;51.634;5.566;2022-10-16T05:23:33;20.40;70.90
58153;DHT22;43967;51.634;5.566;2022-10-16T05:28:35;20.40;70.90
58153;DHT22;43967;51.634;5.566;2022-10-16T05:33:36;20.30;70.70
58153;DHT22;43967;51.634;5.566;2022-10-16T05:38:37;20.30;70.70
58153;DHT22;43967;51.634;5.566;2022-10-16T05:43:38;20.30;71.30
58153;DHT22;43967;51.634;5.566;2022-10-16T05:48:40;20.30;70.70
58153;DHT22;43967;51.634;5.566;2022-10-16T05:53:41;20.30;70.70
58153;DHT22;43967;51.634;5.566;2022-10-16T05:58:44;20.30;70.70
58153;DHT22;43967;51.634;5.566;2022-10-16T06:03:46;20.30;70.70
58153;DHT22;43967;51.634;5.566;2022-10-16T06:08:48;20.30;70.70
58153;DHT22;43967;51.634;5.566;2022-10-16T06:13:54;20.30;70.70
58153;DHT22;43967;51.634;5.566;2022-10-16T06:18:56;20.30;70.60
58153;DHT22;43967;51.634;5.566;2022-10-16T06:23:57;20.30;70.60
58153;DHT22;43967;51.634;5.566;2022-10-16T06:28:59;20.30;70.70
58153;DHT22;43967;51.634;5.566;2022-10-16T06:34:00;20.30;70.60
58153;DHT22;43967;51.634;5.566;2022-10-16T06:39:03;20.30;70.50
58153;DHT22;43967;51.634;5.566;2022-10-16T06:44:07;20.20;70.40
58153;DHT22;43967;51.634;5.566;2022-10-16T06:49:08;20.20;70.70
58153;DHT22;43967;51.634;5.566;2022-10-16T06:54:09;20.20;71.10
58153;DHT22;43967;51.634;5.566;2022-10-16T06:59:11;20.20;70.20
58153;DHT22;43967;51.634;5.566;2022-10-16T07:04:12;20.10;70.30
58153;DHT22;43967;51.634;5.566;2022-10-16T07:09:13;20.10;70.50
58153;DHT22;43967;51.634;5.566;2022-10-16T07:14:19;20.10;70.50
58153;DHT22;43967;51.634;5.566;2022-10-16T07:19:20;20.10;71.10
58153;DHT22;43967;51.634;5.566;2022-10-16T07:24:21;20.10;71.20
58153;DHT22;43967;51.634;5.566;2022-10-16T07:29:23;20.10;71.30
58153;DHT22;43967;51.634;5.566;2022-10-16T07:34:24;20.10;71.30
58153;DHT22;43967;51.634;5.566;2022-10-16T07:39:25;20.20;71.30
58153;DHT22;43967;51.634;5.566;2022-10-16T07:44:26;20.20;71.50
58153;DHT22;43967;51.634;5.566;2022-10-16T07:49:27;20.20;71.30
58153;DHT22;43967;51.634;5.566;2022-10-16T07:54:28;20.30;71.80
58153;DHT22;43967;51.634;5.566;2022-10-16T07:59:29;20.40;72.50
58153;DHT22;43967;51.634;5.566;2022-10-16T08:04:30;20.40;73.10
58153;DHT22;43967;51.634;5.566;2022-10-16T08:09:31;20.40;73.00
58153;DHT22;43967;51.634;5.566;2022-10-16T08:14:32;20.40;72.90
58153;DHT22;43967;51.634;5.566;2022-10-16T08:19:33;20.40;72.90
58153;DHT22;43967;51.634;5.566;2022-10-16T08:24:34;20.50;72.90
58153;DHT22;43967;51.634;5.566;2022-10-16T08:29:35;20.50;72.60
58153;DHT22;43967;51.634;5.566;2022-10-16T08:34:36;20.40;72.20
58153;DHT22;43967;51.634;5.566;2022-10-16T08:39:37;20.50;72.00
58153;DHT22;43967;51.634;5.566;2022-10-16T08:50:00;20.60;72.00
58153;DHT22;43967;51.634;5.566;2022-10-16T08:55:04;20.40;68.90
58153;DHT22;43967;51.634;5.566;2022-10-16T09:00:14;20.50;70.70
58153;DHT22;43967;51.634;5.566;2022-10-16T09:05:38;20.50;70.90
58153;DHT22;43967;51.634;5.566;2022-10-16T09:10:58;20.50;71.10
58153;DHT22;43967;51.634;5.566;2022-10-16T09:16:22;20.50;71.10
58153;DHT22;43967;51.634;5.566;2022-10-16T09:21:30;20.50;71.20
58153;DHT22;43967;51.634;5.566;2022-10-16T09:26:32;20.50;71.20
58153;DHT22;43967;51.634;5.566;2022-10-16T09:31:36;20.50;71.20
58153;DHT22;43967;51.634;5.566;2022-10-16T09:36:42;20.50;71.20
58153;DHT22;43967;51.634;5.566;2022-10-16T09:41:45;20.50;71.20
58153;DHT22;43967;51.634;5.566;2022-10-16T09:46:46;20.50;71.20
58153;DHT22;43967;51.634;5.566;2022-10-16T09:51:47;20.50;72.00
58153;DHT22;43967;51.634;5.566;2022-10-16T09:56:49;20.50;71.30
58153;DHT22;43967;51.634;5.566;2022-10-16T10:01:54;20.50;71.30
58153;DHT22;43967;51.634;5.566;2022-10-16T10:06:56;20.50;71.30
58153;DHT22;43967;51.634;5.566;2022-10-16T10:11:59;20.50;71.40
58153;DHT22;43967;51.634;5.566;2022-10-16T10:17:11;20.50;71.30
58153;DHT22;43967;51.634;5.566;2022-10-16T10:22:40;20.50;71.10
58153;DHT22;43967;51.634;5.566;2022-10-16T10:38:41;20.50;71.70
58153;DHT22;43967;51.634;5.566;2022-10-16T10:55:27;20.50;71.70
58153;DHT22;43967;51.634;5.566;2022-10-16T11:00:03;20.60;71.80
58153;DHT22;43967;51.634;5.566;2022-10-16T11:05:31;20.50;69.70
58153;DHT22;43967;51.634;5.566;2022-10-16T11:10:57;20.50;70.00
58153;DHT22;43967;51.634;5.566;2022-10-16T11:16:04;20.50;69.30
58153;DHT22;43967;51.634;5.566;2022-10-16T11:21:12;20.50;69.10
58153;DHT22;43967;51.634;5.566;2022-10-16T11:26:21;20.40;66.80
58153;DHT22;43967;51.634;5.566;2022-10-16T11:31:36;20.40;66.80
58153;DHT22;43967;51.634;5.566;2022-10-16T11:36:46;20.40;67.60
58153;DHT22;43967;51.634;5.566;2022-10-16T11:52:24;20.60;67.00
58153;DHT22;43967;51.634;5.566;2022-10-16T11:57:33;20.50;66.40
58153;DHT22;43967;51.634;5.566;2022-10-16T12:08:13;20.40;65.50
58153;DHT22;43967;51.634;5.566;2022-10-16T12:13:39;20.50;66.50
58153;DHT22;43967;51.634;5.566;2022-10-16T12:18:43;20.40;65.90
58153;DHT22;43967;51.634;5.566;2022-10-16T12:24:03;20.40;65.40
58153;DHT22;43967;51.634;5.566;2022-10-16T12:29:23;20.40;65.50
58153;DHT22;43967;51.634;5.566;2022-10-16T12:34:43;20.40;64.80
58153;DHT22;43967;51.634;5.566;2022-10-16T12:39:45;20.40;65.20
58153;DHT22;43967;51.634;5.566;2022-10-16T12:44:47;20.50;66.80
58153;DHT22;43967;51.634;5.566;2022-10-16T12:49:51;20.60;66.10
58153;DHT22;43967;51.634;5.566;2022-10-16T12:54:56;20.70;65.90
58153;DHT22;43967;51.634;5.566;2022-10-16T13:00:29;20.60;65.20
58153;DHT22;43967;51.634;5.566;2022-10-16T13:05:40;20.60;64.90
58153;DHT22;43967;51.634;5.566;2022-10-16T13:11:08;20.60;64.90
58153;DHT22;43967;51.634;5.566;2022-10-16T13:22:04;20.60;65.30
58153;DHT22;43967;51.634;5.566;2022-10-16T13:27:37;20.70;66.70
58153;DHT22;43967;51.634;5.566;2022-10-16T13:32:40;20.70;64.60
58153;DHT22;43967;51.634;5.566;2022-10-16T13:37:44;20.70;65.50
58153;DHT22;43967;51.634;5.566;2022-10-16T13:42:45;20.80;65.80
58153;DHT22;43967;51.634;5.566;2022-10-16T13:47:47;20.80;64.60
58153;DHT22;43967;51.634;5.566;2022-10-16T13:52:48;20.70;64.10
58153;DHT22;43967;51.634;5.566;2022-10-16T13:57:49;20.60;63.90
58153;DHT22;43967;51.634;5.566;2022-10-16T14:03:00;20.60;64.70
58153;DHT22;43967;51.634;5.566;2022-10-16T14:08:02;20.60;63.90
58153;DHT22;43967;51.634;5.566;2022-10-16T14:13:05;20.50;65.10
58153;DHT22;43967;51.634;5.566;2022-10-16T14:18:07;20.60;65.50
58153;DHT22;43967;51.634;5.566;2022-10-16T14:23:30;20.60;66.00
58153;DHT22;43967;51.634;5.566;2022-10-16T14:28:31;20.60;66.30
58153;DHT22;43967;51.634;5.566;2022-10-16T14:33:33;20.60;66.30
58153;DHT22;43967;51.634;5.566;2022-10-16T14:38:35;20.60;66.70
58153;DHT22;43967;51.634;5.566;2022-10-16T14:43:39;20.60;67.80
58153;DHT22;43967;51.634;5.566;2022-10-16T14:48:43;20.60;67.20
58153;DHT22;43967;51.634;5.566;2022-10-16T14:53:45;20.60;67.00
58153;DHT22;43967;51.634;5.566;2022-10-16T14:58:46;20.60;67.50
58153;DHT22;43967;51.634;5.566;2022-10-16T15:03:47;20.60;67.60
58153;DHT22;43967;51.634;5.566;2022-10-16T15:08:48;20.60;67.80
58153;DHT22;43967;51.634;5.566;2022-10-16T15:13:50;20.60;67.80
58153;DHT22;43967;51.634;5.566;2022-10-16T15:18:51;20.60;67.90
58153;DHT22;43967;51.634;5.566;2022-10-16T15:23:52;20.60;67.90
58153;DHT22;43967;51.634;5.566;2022-10-16T15:28:53;20.60;68.10
58153;DHT22;43967;51.634;5.566;2022-10-16T15:33:54;20.60;68.00
58153;DHT22;43967;51.634;5.566;2022-10-16T15:38:55;20.70;68.80
58153;DHT22;43967;51.634;5.566;2022-10-16T15:43:57;20.70;68.40
58153;DHT22;43967;51.634;5.566;2022-10-16T15:48:58;20.70;68.60
58153;DHT22;43967;51.634;5.566;2022-10-16T15:53:59;20.70;68.70
58153;DHT22;43967;51.634;5.566;2022-10-16T15:59:00;20.70;69.10
58153;DHT22;43967;51.634;5.566;2022-10-16T16:04:02;20.80;69.50
58153;DHT22;43967;51.634;5.566;2022-10-16T16:09:03;21.00;69.90
58153;DHT22;43967;51.634;5.566;2022-10-16T16:14:11;21.10;69.10
58153;DHT22;43967;51.634;5.566;2022-10-16T16:19:13;21.10;69.80
58153;DHT22;43967;51.634;5.566;2022-10-16T16:24:15;21.30;69.90
58153;DHT22;43967;51.634;5.566;2022-10-16T16:29:16;21.40;69.70
58153;DHT22;43967;51.634;5.566;2022-10-16T16:34:17;21.50;69.50
58153;DHT22;43967;51.634;5.566;2022-10-16T16:39:19;21.60;69.60
58153;DHT22;43967;51.634;5.566;2022-10-16T16:44:20;21.50;69.70
58153;DHT22;43967;51.634;5.566;2022-10-16T16:49:21;21.50;70.00
58153;DHT22;43967;51.634;5.566;2022-10-16T16:54:22;21.60;70.40
58153;DHT22;43967;51.634;5.566;2022-10-16T16:59:23;21.80;70.20
58153;DHT22;43967;51.634;5.566;2022-10-16T17:04:25;21.80;70.00
58153;DHT22;43967;51.634;5.566;2022-10-16T17:09:26;22.00;70.10
58153;DHT22;43967;51.634;5.566;2022-10-16T17:14:27;22.10;70.10
58153;DHT22;43967;51.634;5.566;2022-10-16T17:19:28;21.90;70.30
58153;DHT22;43967;51.634;5.566;2022-10-16T17:24:29;22.00;70.30
58153;DHT22;43967;51.634;5.566;2022-10-16T17:29:30;22.00;70.30
58153;DHT22;43967;51.634;5.566;2022-10-16T17:34:32;22.00;70.30
58153;DHT22;43967;51.634;5.566;2022-10-16T17:39:33;22.00;70.40
58153;DHT22;43967;51.634;5.566;2022-10-16T17:44:34;22.10;70.50
58153;DHT22;43967;51.634;5.566;2022-10-16T17:49:35;22.10;70.60
58153;DHT22;43967;51.634;5.566;2022-10-16T17:54:36;22.00;70.50
58153;DHT22;43967;51.634;5.566;2022-10-16T17:59:37;21.80;70.10
58153;DHT22;43967;51.634;5.566;2022-10-16T18:04:38;21.70;68.70
58153;DHT22;43967;51.634;5.566;2022-10-16T18:09:39;21.00;68.00
58153;DHT22;43967;51.634;5.566;2022-10-16T18:14:41;21.10;69.40
58153;DHT22;43967;51.634;5.566;2022-10-16T18:19:42;21.30;70.60
58153;DHT22;43967;51.634;5.566;2022-10-16T18:24:43;21.40;70.70
58153;DHT22;43967;51.634;5.566;2022-10-16T18:29:44;21.40;70.30
58153;DHT22;43967;51.634;5.566;2022-10-16T18:34:45;21.50;70.40
58153;DHT22;43967;51.634;5.566;2022-10-16T18:39:46;21.60;70.40
58153;DHT22;43967;51.634;5.566;2022-10-16T18:44:48;21.60;70.50
58153;DHT22;43967;51.634;5.566;2022-10-16T18:49:49;21.70;70.80
58153;DHT22;43967;51.634;5.566;2022-10-16T18:54:54;21.70;71.10
58153;DHT22;43967;51.634;5.566;2022-10-16T18:59:56;21.70;71.20
58153;DHT22;43967;51.634;5.566;2022-10-16T19:04:58;21.70;71.30
58153;DHT22;43967;51.634;5.566;2022-10-16T19:09:59;21.70;71.30
58153;DHT22;43967;51.634;5.566;2022-10-16T19:15:00;21.70;71.50
58153;DHT22;43967;51.634;5.566;2022-10-16T19:20:01;21.70;71.50
58153;DHT22;43967;51.634;5.566;2022-10-16T19:35:36;21.70;71.80
58153;DHT22;43967;51.634;5.566;2022-10-16T19:40:37;21.70;71.80
58153;DHT22;43967;51.634;5.566;2022-10-16T19:45:38;21.70;71.80
58153;DHT22;43967;51.634;5.566;2022-10-16T19:50:44;21.60;71.80
58153;DHT22;43967;51.634;5.566;2022-10-16T19:55:45;21.60;71.80
58153;DHT22;43967;51.634;5.566;2022-10-16T20:00:46;21.60;71.80
58153;DHT22;43967;51.634;5.566;2022-10-16T20:05:52;21.60;71.80
58153;DHT22;43967;51.634;5.566;2022-10-16T20:10:54;21.60;72.60
58153;DHT22;43967;51.634;5.566;2022-10-16T20:15:55;21.60;71.80
58153;DHT22;43967;51.634;5.566;2022-10-16T20:20:56;21.50;71.80
58153;DHT22;43967;51.634;5.566;2022-10-16T20:25:59;21.50;71.70
58153;DHT22;43967;51.634;5.566;2022-10-16T20:31:06;21.60;72.00
58153;DHT22;43967;51.634;5.566;2022-10-16T20:36:12;21.60;71.70
58153;DHT22;43967;51.634;5.566;2022-10-16T20:41:15;21.60;71.60
58153;DHT22;43967;51.634;5.566;2022-10-16T20:46:20;21.60;71.50
58153;DHT22;43967;51.634;5.566;2022-10-16T20:51:24;21.50;71.30
58153;DHT22;43967;51.634;5.566;2022-10-16T20:56:27;21.50;71.30
58153;DHT22;43967;51.634;5.566;2022-10-16T21:01:30;21.50;71.20
58153;DHT22;43967;51.634;5.566;2022-10-16T21:06:33;21.50;71.20
58153;DHT22;43967;51.634;5.566;2022-10-16T21:11:36;21.50;71.10
58153;DHT22;43967;51.634;5.566;2022-10-16T21:16:37;21.50;71.10
58153;DHT22;43967;51.634;5.566;2022-10-16T21:21:38;21.50;71.00
58153;DHT22;43967;51.634;5.566;2022-10-16T21:26:39;21.50;71.00
58153;DHT22;43967;51.634;5.566;2022-10-16T21:31:41;21.50;71.00
58153;DHT22;43967;51.634;5.566;2022-10-16T21:36:42;21.40;70.90
58153;DHT22;43967;51.634;5.566;2022-10-16T21:41:45;21.40;71.00
58153;DHT22;43967;51.634;5.566;2022-10-16T21:46:46;21.40;70.90
58153;DHT22;43967;51.634;5.566;2022-10-16T21:51:49;21.40;71.00
58153;DHT22;43967;51.634;5.566;2022-10-16T21:56:50;21.40;71.00
58153;DHT22;43967;51.634;5.566;2022-10-16T22:01:52;21.40;70.90
58153;DHT22;43967;51.634;5.566;2022-10-16T22:06:53;21.40;70.80
58153;DHT22;43967;51.634;5.566;2022-10-16T22:11:54;21.30;70.70
58153;DHT22;43967;51.634;5.566;2022-10-16T22:16:55;21.40;70.70
58153;DHT22;43967;51.634;5.566;2022-10-16T22:21:56;21.40;70.70
58153;DHT22;43967;51.634;5.566;2022-10-16T22:26:57;21.30;70.60
58153;DHT22;43967;51.634;5.566;2022-10-16T22:31:58;21.30;70.60
58153;DHT22;43967;51.634;5.566;2022-10-16T22:36:59;21.30;70.60
58153;DHT22;43967;51.634;5.566;2022-10-16T22:42:01;21.30;70.60
58153;DHT22;43967;51.634;5.566;2022-10-16T22:47:02;21.30;70.50
58153;DHT22;43967;51.634;5.566;2022-10-16T22:52:03;21.30;70.60
58153;DHT22;43967;51.634;5.566;2022-10-16T22:57:04;21.30;70.70
58153;DHT22;43967;51.634;5.566;2022-10-16T23:02:05;21.30;70.70
58153;DHT22;43967;51.634;5.566;2022-10-16T23:07:06;21.30;70.70
58153;DHT22;43967;51.634;5.566;2022-10-16T23:12:07;21.30;70.70
58153;DHT22;43967;51.634;5.566;2022-10-16T23:17:08;21.20;70.60
58153;DHT22;43967;51.634;5.566;2022-10-16T23:22:09;21.30;70.60
58153;DHT22;43967;51.634;5.566;2022-10-16T23:27:11;21.30;70.50
58153;DHT22;43967;51.634;5.566;2022-10-16T23:32:12;21.20;70.40
58153;DHT22;43967;51.634;5.566;2022-10-16T23:37:13;21.20;70.50
58153;DHT22;43967;51.634;5.566;2022-10-16T23:42:15;21.20;70.40
58153;DHT22;43967;51.634;5.566;2022-10-16T23:47:16;21.20;70.40
58153;DHT22;43967;51.634;5.566;2022-10-16T23:52:17;21.20;70.40
58153;DHT22;43967;51.634;5.566;2022-10-16T23:57:18;21.20;70.40
